Healing, United Kingdom
Current Conditions -  °F | °C
As of 12:50 AM on Sunday 26 Oct 2014 (Local Time) from EGNJ Reporting Station
Scattered Clouds Scattered Clouds  
Wind Chill: 12°   Ceiling: Unl
Heat Index: 12°   Visibility: 6mi
Dew Point:   Wind: 22mph
Humidity: 82%   Direction: 220°SW
Pressure: 30"   Gusts: NA
Location:  53.58°N, 0.16°W
Report Text: EGNJ 252350Z AUTO 22019KT 9999 SCT049/// 12/09 Q1016
Loading
Personal Weather Stations






























Interactive Weather Map
Tropical Storm Tracking
New forecast layout! Learn more

10-Day Weather Forecast

Advertisements
Track Severe Weather on mobile